createdAt,value
2022-09-12T00:00:44.647Z,11.89
2022-09-12T00:03:11.292Z,11.89
2022-09-12T00:05:41.577Z,11.99
2022-09-12T00:08:08.342Z,11.97
2022-09-12T00:10:41.274Z,11.97
2022-09-12T00:13:09.652Z,12.09
2022-09-12T00:15:41.075Z,12.14
2022-09-12T00:18:10.147Z,12.15
2022-09-12T00:20:42.278Z,12.09
2022-09-12T00:23:08.801Z,12.16
2022-09-12T00:25:35.369Z,12.08
2022-09-12T00:28:01.880Z,12.17
2022-09-12T00:30:28.408Z,12.02
2022-09-12T00:32:55.104Z,11.94
2022-09-12T00:35:21.682Z,11.94
2022-09-12T00:37:48.105Z,12.04
2022-09-12T00:40:15.115Z,11.98
2022-09-12T00:42:41.613Z,11.86
2022-09-12T00:45:22.026Z,11.81
2022-09-12T00:47:49.214Z,11.73
2022-09-12T00:50:16.684Z,11.73
2022-09-12T00:52:52.198Z,11.80
2022-09-12T00:55:28.316Z,11.80
2022-09-12T00:58:03.694Z,11.74
2022-09-12T01:00:30.532Z,11.78
2022-09-12T01:03:04.290Z,11.70
2022-09-12T01:05:33.974Z,11.62
2022-09-12T01:08:05.183Z,11.56
2022-09-12T01:10:35.561Z,11.52
2022-09-12T01:13:05.954Z,11.24
2022-09-12T01:15:33.310Z,11.41
2022-09-12T01:18:31.055Z,11.32
2022-09-12T01:21:05.962Z,11.19
2022-09-12T01:24:10.745Z,11.16
2022-09-12T01:26:55.961Z,11.32
2022-09-12T01:29:49.695Z,11.37
2022-09-12T01:32:38.554Z,11.36
2022-09-12T01:35:24.473Z,11.41
2022-09-12T01:38:08.906Z,11.39
2022-09-12T01:41:31.129Z,11.11
2022-09-12T01:44:22.779Z,11.08
2022-09-12T01:47:11.416Z,11.10
2022-09-12T01:49:46.319Z,10.97
2022-09-12T01:52:28.915Z,11.03
2022-09-12T01:55:01.469Z,11.13
2022-09-12T01:57:41.152Z,11.06
2022-09-12T02:00:11.515Z,11.18
2022-09-12T02:03:10.249Z,11.15
2022-09-12T02:05:58.328Z,11.24
2022-09-12T02:08:47.215Z,11.10
2022-09-12T02:11:14.046Z,10.89
2022-09-12T02:13:49.716Z,10.86
2022-09-12T02:16:34.289Z,10.83
2022-09-12T02:19:08.720Z,10.91
2022-09-12T02:21:38.279Z,10.98
2022-09-12T02:24:08.222Z,10.98
2022-09-12T02:26:41.478Z,11.08
2022-09-12T02:29:08.241Z,11.11
2022-09-12T02:31:49.443Z,11.14
2022-09-12T02:34:34.745Z,10.75
2022-09-12T02:37:32.464Z,10.80
2022-09-12T02:40:00.211Z,10.71
2022-09-12T02:42:27.660Z,10.81
2022-09-12T02:44:55.394Z,10.89
2022-09-12T02:47:30.086Z,10.82
2022-09-12T02:49:57.006Z,10.60
2022-09-12T02:52:23.996Z,10.53
2022-09-12T02:54:51.585Z,10.61
2022-09-12T02:57:22.867Z,10.62
2022-09-12T02:59:53.432Z,10.59
2022-09-12T03:02:34.978Z,10.57
2022-09-12T03:05:25.504Z,10.70
2022-09-12T03:08:07.131Z,10.68
2022-09-12T03:11:09.161Z,10.62
2022-09-12T03:13:58.254Z,10.57
2022-09-12T03:16:46.605Z,10.55
2022-09-12T03:19:25.251Z,10.65
2022-09-12T03:22:09.071Z,10.51
2022-09-12T03:24:44.847Z,10.65
2022-09-12T03:27:26.185Z,10.45
2022-09-12T03:29:53.826Z,10.43
2022-09-12T03:32:20.318Z,10.53
2022-09-12T03:34:46.810Z,10.46
2022-09-12T03:37:13.635Z,10.47
2022-09-12T03:39:40.342Z,10.36
2022-09-12T03:42:06.973Z,10.45
2022-09-12T03:44:33.410Z,10.41
2022-09-12T03:47:00.092Z,10.28
2022-09-12T03:49:26.667Z,10.28
2022-09-12T03:51:53.046Z,10.38
2022-09-12T03:54:19.530Z,10.29
2022-09-12T03:56:46.017Z,10.28
2022-09-12T03:59:12.544Z,10.17
2022-09-12T04:01:39.045Z,10.20
2022-09-12T04:04:05.617Z,10.24
2022-09-12T04:06:32.195Z,10.28
2022-09-12T04:08:58.732Z,10.23
2022-09-12T04:11:25.320Z,10.11
2022-09-12T04:13:52.053Z,10.12
2022-09-12T04:16:19.149Z,10.17
2022-09-12T04:18:46.512Z,10.12
2022-09-12T04:21:16.712Z,10.07
2022-09-12T04:23:43.821Z,9.97
2022-09-12T04:26:10.815Z,9.82
2022-09-12T04:28:38.605Z,9.94
2022-09-12T04:31:07.853Z,10.06
2022-09-12T04:33:35.514Z,10.20
2022-09-12T04:36:17.305Z,10.17
2022-09-12T04:38:45.933Z,10.24
2022-09-12T04:41:21.574Z,10.26
2022-09-12T04:43:53.006Z,10.29
2022-09-12T04:46:20.391Z,10.24
2022-09-12T04:48:47.890Z,10.36
2022-09-12T04:51:22.696Z,10.35
2022-09-12T04:53:52.086Z,10.37
2022-09-12T04:56:19.977Z,10.37
2022-09-12T04:58:47.164Z,10.39
2022-09-12T05:01:20.329Z,10.42
2022-09-12T05:03:48.260Z,10.49
2022-09-12T05:06:23.983Z,10.48
2022-09-12T05:08:52.447Z,10.29
2022-09-12T05:14:33.053Z,10.27
2022-09-12T05:17:01.439Z,10.28
2022-09-12T05:19:30.209Z,10.25
2022-09-12T05:21:56.995Z,10.27
2022-09-12T05:24:24.649Z,10.28
2022-09-12T05:26:51.624Z,10.28
2022-09-12T05:29:18.951Z,10.41
2022-09-12T05:31:45.529Z,10.42
2022-09-12T05:34:12.683Z,10.38
2022-09-12T05:36:39.203Z,10.52
2022-09-12T05:39:05.940Z,10.63
2022-09-12T05:41:33.953Z,10.66
2022-09-12T05:44:03.094Z,10.80
2022-09-12T05:46:41.653Z,10.63
2022-09-12T05:49:11.260Z,10.64
2022-09-12T05:51:41.441Z,10.81
2022-09-12T05:54:10.189Z,10.87
2022-09-12T05:56:42.717Z,10.85
2022-09-12T05:59:18.353Z,10.73
2022-09-12T06:01:45.343Z,10.88
2022-09-12T06:04:12.251Z,10.79
2022-09-12T06:06:41.952Z,11.03
2022-09-12T06:09:09.386Z,11.26
2022-09-12T06:11:40.177Z,11.38
2022-09-12T06:14:08.268Z,11.52
2022-09-12T06:16:35.798Z,11.61
2022-09-12T06:19:06.609Z,11.55
2022-09-12T06:21:35.325Z,11.42
2022-09-12T06:24:02.542Z,11.37
2022-09-12T06:26:29.849Z,11.60
2022-09-12T06:28:59.419Z,11.53
2022-09-12T06:31:29.423Z,11.51
2022-09-12T06:33:59.290Z,11.74
2022-09-12T06:36:29.687Z,11.77
2022-09-12T06:39:02.109Z,11.99
2022-09-12T06:41:31.069Z,12.15
2022-09-12T06:43:58.682Z,12.40
2022-09-12T06:46:25.608Z,11.92
2022-09-12T06:48:52.272Z,12.04
2022-09-12T06:51:20.125Z,12.70
2022-09-12T06:53:48.081Z,12.31
2022-09-12T06:56:20.500Z,12.66
2022-09-12T06:58:48.796Z,12.90
2022-09-12T07:01:20.263Z,13.19
2022-09-12T07:03:50.032Z,13.62
2022-09-12T07:06:19.203Z,12.56
2022-09-12T07:08:46.462Z,12.83
2022-09-12T07:11:27.110Z,13.57
2022-09-12T07:13:56.537Z,13.81
2022-09-12T07:16:23.664Z,13.77
2022-09-12T07:19:01.046Z,14.08
2022-09-12T07:21:28.332Z,13.40
2022-09-12T07:24:00.618Z,13.73
2022-09-12T07:26:28.898Z,14.10
2022-09-12T07:29:12.756Z,14.00
2022-09-12T07:31:44.686Z,14.26
2022-09-12T07:34:11.360Z,14.67
2022-09-12T07:36:37.939Z,14.07
2022-09-12T07:39:04.369Z,14.43
2022-09-12T07:41:33.707Z,14.35
2022-09-12T07:44:01.875Z,14.15
2022-09-12T07:46:30.234Z,14.49
2022-09-12T07:48:59.256Z,14.79
2022-09-12T07:51:27.645Z,15.21
2022-09-12T07:53:54.851Z,15.10
2022-09-12T07:56:22.577Z,15.46
2022-09-12T07:58:50.555Z,15.18
2022-09-12T08:01:21.309Z,15.32
2022-09-12T08:03:49.707Z,15.60
2022-09-12T08:06:21.573Z,15.99
2022-09-12T08:08:48.833Z,15.96
2022-09-12T08:11:18.251Z,15.97
2022-09-12T08:13:46.200Z,15.76
2022-09-12T08:16:15.435Z,15.97
2022-09-12T08:18:42.245Z,15.92
2022-09-12T08:21:14.090Z,16.30
2022-09-12T08:23:41.352Z,16.38
2022-09-12T08:26:08.257Z,16.48
2022-09-12T08:28:36.003Z,16.65
2022-09-12T08:31:07.707Z,16.93
2022-09-12T08:33:35.214Z,17.08
2022-09-12T08:36:11.430Z,17.16
2022-09-12T08:38:39.977Z,17.69
2022-09-12T08:41:18.696Z,17.48
2022-09-12T08:44:08.152Z,17.71
2022-09-12T08:46:52.224Z,17.86
2022-09-12T08:49:29.137Z,18.18
2022-09-12T08:51:58.194Z,18.49
2022-09-12T08:54:28.324Z,18.36
2022-09-12T08:57:01.451Z,18.70
2022-09-12T08:59:37.113Z,19.04
2022-09-12T09:02:16.555Z,18.78
2022-09-12T09:04:51.660Z,19.08
2022-09-12T09:07:46.843Z,19.29
2022-09-12T09:10:32.204Z,19.57
2022-09-12T09:13:47.173Z,19.48
2022-09-12T09:16:26.555Z,19.49
2022-09-12T09:18:55.948Z,19.72
2022-09-12T09:21:30.243Z,20.13
2022-09-12T09:24:04.252Z,20.01
2022-09-12T09:26:41.911Z,20.04
2022-09-12T09:29:17.821Z,19.69
2022-09-12T09:31:52.243Z,19.75
2022-09-12T09:34:22.195Z,19.42
2022-09-12T09:37:09.842Z,19.86
2022-09-12T09:39:55.152Z,20.09
2022-09-12T09:42:54.050Z,20.99
2022-09-12T09:45:24.334Z,21.17
2022-09-12T09:47:57.125Z,20.97
2022-09-12T09:50:24.355Z,20.57
2022-09-12T09:52:52.436Z,21.38
2022-09-12T09:55:25.438Z,21.38
2022-09-12T09:57:53.246Z,21.65
2022-09-12T10:00:37.155Z,21.51
2022-09-12T10:03:13.413Z,20.97
2022-09-12T10:06:00.436Z,21.26
2022-09-12T10:08:30.103Z,21.37
2022-09-12T10:11:04.835Z,21.73
2022-09-12T10:13:36.160Z,21.37
2022-09-12T10:16:18.829Z,21.30
2022-09-12T10:18:45.770Z,21.37
2022-09-12T10:21:19.399Z,22.01
2022-09-12T10:23:48.052Z,21.40
2022-09-12T10:26:18.643Z,21.66
2022-09-12T10:28:50.489Z,21.50
2022-09-12T10:31:29.454Z,20.32
2022-09-12T10:33:59.574Z,20.66
2022-09-12T10:36:35.669Z,21.29
2022-09-12T10:39:02.883Z,21.37
2022-09-12T10:41:39.434Z,21.28
2022-09-12T10:44:09.489Z,21.86
2022-09-12T10:46:35.961Z,21.92
2022-09-12T10:49:21.703Z,21.95
2022-09-12T10:51:49.077Z,22.28
2022-09-12T10:54:18.456Z,22.37
2022-09-12T10:57:06.050Z,22.28
2022-09-12T10:59:41.522Z,22.04
2022-09-12T11:02:34.202Z,22.29
2022-09-12T11:05:11.319Z,22.00
2022-09-12T11:07:43.863Z,22.11
2022-09-12T11:10:42.562Z,21.84
2022-09-12T11:13:22.722Z,22.12
2022-09-12T11:16:14.235Z,22.26
2022-09-12T11:19:17.379Z,22.37
2022-09-12T11:21:46.462Z,21.95
2022-09-12T11:24:16.441Z,22.04
2022-09-12T11:27:20.959Z,21.96
2022-09-12T11:30:11.030Z,21.35
2022-09-12T11:32:50.751Z,22.13
2022-09-12T11:35:26.085Z,22.07
2022-09-12T11:38:10.823Z,22.00
2022-09-12T11:40:56.181Z,22.75
2022-09-12T11:43:28.819Z,22.14
2022-09-12T11:45:59.973Z,22.46
2022-09-12T11:48:37.714Z,21.98
2022-09-12T11:51:15.586Z,22.45
2022-09-12T11:53:44.611Z,22.27
2022-09-12T11:56:17.867Z,22.46
2022-09-12T11:59:00.682Z,22.11
2022-09-12T12:01:44.980Z,22.77
2022-09-12T12:04:20.427Z,22.48
2022-09-12T12:06:56.187Z,22.71
2022-09-12T12:09:23.446Z,22.89
2022-09-12T12:11:57.519Z,22.63
2022-09-12T12:14:42.538Z,22.61
2022-09-12T12:17:24.174Z,22.77
2022-09-12T12:20:05.773Z,22.83
2022-09-12T12:22:34.129Z,23.53
2022-09-12T12:25:22.933Z,22.77
2022-09-12T12:27:53.619Z,23.04
2022-09-12T12:30:28.939Z,22.84
2022-09-12T12:33:10.605Z,22.57
2022-09-12T12:35:57.254Z,22.81
2022-09-12T12:38:35.352Z,22.85
2022-09-12T12:41:16.776Z,23.45
2022-09-12T12:43:44.830Z,23.16
2022-09-12T12:46:22.649Z,23.07
2022-09-12T12:49:21.620Z,23.19
2022-09-12T12:51:53.798Z,23.28
2022-09-12T12:54:33.059Z,23.41
2022-09-12T12:57:44.663Z,23.66
2022-09-12T13:00:20.493Z,23.24
2022-09-12T13:02:58.273Z,22.65
2022-09-12T13:05:27.472Z,22.85
2022-09-12T13:08:02.825Z,23.21
2022-09-12T13:10:30.911Z,23.19
2022-09-12T13:13:05.205Z,22.52
2022-09-12T13:15:37.702Z,23.26
2022-09-12T13:18:07.363Z,23.34
2022-09-12T13:20:44.980Z,22.43
2022-09-12T13:23:26.714Z,23.18
2022-09-12T13:25:58.446Z,22.59
2022-09-12T13:28:26.686Z,22.97
2022-09-12T13:30:56.201Z,23.05
2022-09-12T13:33:37.209Z,22.80
2022-09-12T13:36:34.335Z,22.92
2022-09-12T13:39:26.599Z,23.00
2022-09-12T13:42:07.967Z,22.98
2022-09-12T13:44:44.501Z,22.92
2022-09-12T13:47:19.977Z,22.37
2022-09-12T13:49:47.055Z,23.00
2022-09-12T13:52:24.440Z,22.95
2022-09-12T13:54:55.147Z,22.96
2022-09-12T13:57:38.331Z,23.12
2022-09-12T14:00:07.761Z,23.09
2022-09-12T14:02:36.498Z,22.71
2022-09-12T14:05:13.959Z,23.04
2022-09-12T14:07:56.237Z,22.83
2022-09-12T14:10:44.059Z,23.12
2022-09-12T14:13:17.452Z,23.14
2022-09-12T14:15:47.007Z,22.60
2022-09-12T14:18:28.523Z,22.98
2022-09-12T14:20:58.316Z,23.29
2022-09-12T14:23:29.191Z,23.03
2022-09-12T14:25:59.960Z,22.73
2022-09-12T14:28:30.304Z,22.15
2022-09-12T14:31:21.291Z,22.23
2022-09-12T14:33:49.398Z,22.65
2022-09-12T14:36:33.961Z,22.51
2022-09-12T14:39:04.705Z,22.40
2022-09-12T14:41:38.126Z,22.72
2022-09-12T14:44:08.696Z,22.41
2022-09-12T14:46:38.781Z,22.24
2022-09-12T14:49:14.964Z,22.17
2022-09-12T14:51:52.468Z,22.13
2022-09-12T14:54:28.065Z,22.16
2022-09-12T14:57:00.826Z,22.03
2022-09-12T14:59:37.630Z,21.95
2022-09-12T15:02:13.511Z,21.65
2022-09-12T15:04:42.070Z,21.79
2022-09-12T15:07:42.655Z,21.82
2022-09-12T15:10:35.004Z,21.93
2022-09-12T15:13:14.467Z,21.86
2022-09-12T15:15:43.876Z,21.81
2022-09-12T15:18:10.973Z,21.47
2022-09-12T15:20:39.795Z,21.60
2022-09-12T15:23:11.998Z,21.58
2022-09-12T15:25:38.432Z,21.36
2022-09-12T15:28:21.228Z,21.47
2022-09-12T15:30:50.502Z,21.36
2022-09-12T15:33:22.837Z,20.66
2022-09-12T15:35:50.236Z,20.90
2022-09-12T15:38:17.019Z,21.01
2022-09-12T15:40:43.469Z,20.81
2022-09-12T15:43:12.621Z,20.73
2022-09-12T15:45:39.383Z,20.80
2022-09-12T15:48:06.213Z,20.74
2022-09-12T15:50:32.783Z,20.47
2022-09-12T15:52:59.302Z,20.12
2022-09-12T15:55:28.335Z,20.12
2022-09-12T15:57:55.067Z,20.05
2022-09-12T16:00:22.698Z,20.36
2022-09-12T16:02:51.899Z,20.00
2022-09-12T16:05:22.299Z,19.84
2022-09-12T16:07:52.427Z,19.94
2022-09-12T16:10:24.938Z,19.54
2022-09-12T16:12:52.109Z,19.47
2022-09-12T16:15:21.694Z,19.21
2022-09-12T16:17:48.195Z,19.07
2022-09-12T16:20:15.047Z,19.16
2022-09-12T16:22:42.431Z,18.83
2022-09-12T16:25:09.416Z,18.88
2022-09-12T16:27:36.946Z,18.88
2022-09-12T16:30:05.505Z,18.55
2022-09-12T16:32:32.043Z,18.43
2022-09-12T16:34:58.662Z,18.38
2022-09-12T16:37:25.099Z,18.20
2022-09-12T16:39:52.410Z,18.11
2022-09-12T16:42:19.474Z,17.95
2022-09-12T16:44:47.039Z,17.84
2022-09-12T16:47:14.523Z,17.88
2022-09-12T16:49:41.068Z,17.69
2022-09-12T16:52:08.116Z,17.65
2022-09-12T16:54:34.656Z,17.64
2022-09-12T16:57:01.065Z,17.59
2022-09-12T16:59:27.557Z,17.52
2022-09-12T17:01:54.045Z,17.33
2022-09-12T17:04:23.421Z,17.33
2022-09-12T17:06:50.387Z,17.24
2022-09-12T17:09:18.560Z,17.10
2022-09-12T17:11:47.537Z,17.10
2022-09-12T17:14:14.267Z,17.07
2022-09-12T17:16:46.949Z,17.00
2022-09-12T17:19:26.532Z,16.74
2022-09-12T17:21:52.944Z,16.68
2022-09-12T17:24:19.858Z,16.62
2022-09-12T17:26:46.703Z,16.47
2022-09-12T17:29:16.871Z,16.40
2022-09-12T17:31:44.205Z,16.24
2022-09-12T17:34:14.278Z,16.15
2022-09-12T17:36:44.207Z,16.07
2022-09-12T17:39:11.658Z,16.01
2022-09-12T17:41:38.473Z,15.94
2022-09-12T17:44:05.888Z,15.78
2022-09-12T17:46:35.409Z,15.80
2022-09-12T17:49:04.496Z,15.66
2022-09-12T17:51:31.371Z,15.57
2022-09-12T17:54:05.475Z,15.54
2022-09-12T17:56:33.506Z,15.41
2022-09-12T17:59:00.302Z,15.38
2022-09-12T18:01:47.723Z,15.43
2022-09-12T18:04:15.455Z,15.34
2022-09-12T18:06:47.785Z,15.26
2022-09-12T18:09:19.544Z,15.18
2022-09-12T18:11:46.755Z,14.93
2022-09-12T18:14:14.498Z,14.97
2022-09-12T18:16:41.969Z,14.94
2022-09-12T18:19:08.721Z,14.86
2022-09-12T18:21:35.290Z,14.81
2022-09-12T18:24:03.110Z,14.71
2022-09-12T18:26:30.622Z,14.58
2022-09-12T18:28:57.618Z,14.52
2022-09-12T18:31:26.835Z,14.48
2022-09-12T18:33:53.380Z,14.42
2022-09-12T18:36:20.313Z,14.36
2022-09-12T18:38:47.968Z,14.31
2022-09-12T18:41:19.959Z,14.33
2022-09-12T18:43:47.358Z,14.21
2022-09-12T18:46:19.134Z,14.11
2022-09-12T18:48:46.718Z,14.25
2022-09-12T18:51:22.375Z,14.25
2022-09-12T18:54:01.079Z,14.16
2022-09-12T18:56:33.241Z,14.14
2022-09-12T18:59:02.766Z,14.06
2022-09-12T19:01:31.697Z,14.05
2022-09-12T19:03:59.109Z,13.99
2022-09-12T19:06:28.338Z,14.02
2022-09-12T19:08:56.172Z,13.98
2022-09-12T19:11:23.634Z,13.97
2022-09-12T19:13:51.879Z,13.92
2022-09-12T19:16:21.789Z,13.78
2022-09-12T19:18:49.671Z,13.79
2022-09-12T19:21:24.680Z,13.79
2022-09-12T19:23:53.529Z,13.70
2022-09-12T19:26:20.723Z,13.66
2022-09-12T19:28:47.446Z,13.59
2022-09-12T19:31:16.608Z,13.54
2022-09-12T19:33:43.104Z,13.50
2022-09-12T19:36:33.747Z,13.41
2022-09-12T19:39:00.059Z,13.44
2022-09-12T19:41:27.134Z,13.39
2022-09-12T19:43:54.712Z,13.46
2022-09-12T19:46:23.393Z,13.41
2022-09-12T19:48:50.524Z,13.29
2022-09-12T19:51:17.735Z,13.29
2022-09-12T19:53:44.748Z,13.30
2022-09-12T19:56:13.652Z,13.29
2022-09-12T19:58:43.320Z,13.24
2022-09-12T20:01:15.663Z,13.19
2022-09-12T20:03:43.162Z,13.17
2022-09-12T20:06:13.061Z,13.15
2022-09-12T20:08:40.365Z,13.07
2022-09-12T20:11:07.978Z,13.08
2022-09-12T20:13:35.363Z,13.08
2022-09-12T20:16:10.224Z,13.02
2022-09-12T20:18:37.903Z,12.94
2022-09-12T20:21:25.384Z,13.00
2022-09-12T20:23:52.298Z,12.90
2022-09-12T20:26:20.238Z,12.88
2022-09-12T20:28:46.944Z,12.82
2022-09-12T20:31:15.723Z,12.84
2022-09-12T20:33:43.049Z,12.84
2022-09-12T20:36:15.203Z,12.78
2022-09-12T20:38:46.473Z,12.78
2022-09-12T20:41:13.026Z,12.81
2022-09-12T20:43:40.095Z,12.84
2022-09-12T20:46:09.718Z,12.76
2022-09-12T20:48:37.359Z,12.85
2022-09-12T20:51:04.655Z,12.81
2022-09-12T20:53:34.836Z,12.69
2022-09-12T20:56:02.749Z,12.72
2022-09-12T20:58:29.197Z,12.69
2022-09-12T21:00:55.712Z,12.62
2022-09-12T21:03:22.911Z,12.58
2022-09-12T21:05:49.402Z,12.58
2022-09-12T21:08:15.926Z,12.52
2022-09-12T21:10:45.238Z,12.52
2022-09-12T21:13:13.200Z,12.51
2022-09-12T21:15:41.074Z,12.42
2022-09-12T21:18:08.127Z,12.32
2022-09-12T21:20:35.063Z,12.31
2022-09-12T21:23:01.714Z,12.37
2022-09-12T21:25:29.069Z,12.34
2022-09-12T21:27:55.535Z,12.23
2022-09-12T21:30:22.579Z,12.19
2022-09-12T21:32:49.092Z,12.18
2022-09-12T21:35:15.742Z,12.13
2022-09-12T21:37:42.121Z,12.18
2022-09-12T21:40:08.963Z,12.20
2022-09-12T21:42:35.522Z,12.28
2022-09-12T21:45:02.211Z,12.14
2022-09-12T21:47:28.546Z,12.12
2022-09-12T21:49:55.344Z,12.06
2022-09-12T21:52:22.009Z,12.08
2022-09-12T21:54:48.397Z,12.12
2022-09-12T21:57:14.889Z,12.03
2022-09-12T22:02:33.258Z,11.98
2022-09-12T22:04:59.691Z,12.05
2022-09-12T22:07:26.250Z,12.08
2022-09-12T22:09:52.832Z,12.05
2022-09-12T22:12:19.411Z,12.02
2022-09-12T22:14:46.760Z,12.02
2022-09-12T22:17:13.913Z,12.00
2022-09-12T22:19:40.827Z,11.99
2022-09-12T22:22:26.480Z,12.04
2022-09-12T22:24:53.508Z,12.01
2022-09-12T22:27:20.018Z,11.99
2022-09-12T22:29:49.588Z,12.02
2022-09-12T22:32:17.284Z,12.01
2022-09-12T22:34:43.758Z,11.94
2022-09-12T22:37:13.140Z,11.89
2022-09-12T22:39:40.262Z,11.85
2022-09-12T22:42:07.822Z,11.85
2022-09-12T22:44:34.296Z,11.78
2022-09-12T22:47:00.905Z,11.80
2022-09-12T22:49:27.325Z,11.75
2022-09-12T22:51:53.856Z,11.76
2022-09-12T22:54:20.381Z,11.76
2022-09-12T22:56:46.912Z,11.81
2022-09-12T22:59:13.491Z,11.77
2022-09-12T23:01:39.999Z,11.76
2022-09-12T23:04:06.521Z,11.76
2022-09-12T23:06:33.030Z,11.71
2022-09-12T23:08:59.536Z,11.64
2022-09-12T23:11:27.425Z,11.54
2022-09-12T23:13:53.950Z,11.56
2022-09-12T23:16:23.569Z,11.59
2022-09-12T23:18:50.999Z,11.55
2022-09-12T23:21:19.835Z,11.39
2022-09-12T23:23:46.652Z,11.41
2022-09-12T23:26:18.019Z,11.50
2022-09-12T23:28:53.035Z,11.50
2022-09-12T23:31:20.645Z,11.48
2022-09-12T23:33:47.719Z,11.47
2022-09-12T23:36:14.473Z,11.52
2022-09-12T23:38:43.627Z,11.49
2022-09-12T23:41:11.288Z,11.46
2022-09-12T23:43:38.759Z,11.40
2022-09-12T23:46:06.692Z,11.48
2022-09-12T23:48:33.600Z,11.42
2022-09-12T23:51:00.582Z,11.42
2022-09-12T23:53:27.773Z,11.45
2022-09-12T23:55:54.311Z,11.43
2022-09-12T23:58:22.564Z,11.50
